createdAt,value
2022-08-03T00:01:36.153Z,21.31
2022-08-03T00:04:04.407Z,21.46
2022-08-03T00:06:36.814Z,21.60
2022-08-03T00:09:05.968Z,21.71
2022-08-03T00:11:35.880Z,21.71
2022-08-03T00:14:04.207Z,21.46
2022-08-03T00:16:32.318Z,21.14
2022-08-03T00:19:00.679Z,20.95
2022-08-03T00:21:29.164Z,20.86
2022-08-03T00:23:57.222Z,20.81
2022-08-03T00:26:25.189Z,20.77
2022-08-03T00:28:54.544Z,20.95
2022-08-03T00:31:40.093Z,21.13
2022-08-03T00:34:10.540Z,21.20
2022-08-03T00:36:41.233Z,21.12
2022-08-03T00:39:09.610Z,21.03
2022-08-03T00:41:37.627Z,21.10
2022-08-03T00:44:15.749Z,21.07
2022-08-03T00:46:43.797Z,21.13
2022-08-03T00:49:11.841Z,21.18
2022-08-03T00:51:40.087Z,21.16
2022-08-03T00:54:08.132Z,21.13
2022-08-03T00:56:36.165Z,20.86
2022-08-03T00:59:04.891Z,20.96
2022-08-03T01:01:34.399Z,20.86
2022-08-03T01:04:02.421Z,20.82
2022-08-03T01:06:35.767Z,20.95
2022-08-03T01:09:09.166Z,20.97
2022-08-03T01:11:59.798Z,20.93
2022-08-03T01:14:35.351Z,21.06
2022-08-03T01:17:13.444Z,20.84
2022-08-03T01:19:47.549Z,21.05
2022-08-03T01:22:47.490Z,20.85
2022-08-03T01:25:22.370Z,20.73
2022-08-03T01:27:58.545Z,20.67
2022-08-03T01:30:30.495Z,20.52
2022-08-03T01:33:02.536Z,20.55
2022-08-03T01:35:38.303Z,20.62
2022-08-03T01:38:10.314Z,20.48
2022-08-03T01:40:39.118Z,20.48
2022-08-03T01:43:07.954Z,20.12
2022-08-03T01:45:38.279Z,20.00
2022-08-03T01:48:07.027Z,20.00
2022-08-03T01:50:35.841Z,20.10
2022-08-03T01:53:03.995Z,20.26
2022-08-03T01:55:33.337Z,20.30
2022-08-03T01:58:05.365Z,20.42
2022-08-03T02:00:35.269Z,20.43
2022-08-03T02:03:06.668Z,20.44
2022-08-03T02:05:35.712Z,20.49
2022-08-03T02:08:05.180Z,20.53
2022-08-03T02:10:35.193Z,20.43
2022-08-03T02:13:05.490Z,20.45
2022-08-03T02:15:34.018Z,20.15
2022-08-03T02:18:04.828Z,19.99
2022-08-03T02:20:36.396Z,19.71
2022-08-03T02:23:04.558Z,19.70
2022-08-03T02:25:33.727Z,19.85
2022-08-03T02:28:08.203Z,19.87
2022-08-03T02:30:39.149Z,19.89
2022-08-03T02:33:13.255Z,20.00
2022-08-03T02:35:41.608Z,19.92
2022-08-03T02:38:11.588Z,19.65
2022-08-03T02:40:40.463Z,19.42
2022-08-03T02:43:10.443Z,19.49
2022-08-03T02:45:45.648Z,19.69
2022-08-03T02:48:17.656Z,19.58
2022-08-03T02:50:46.325Z,19.41
2022-08-03T02:53:15.056Z,19.32
2022-08-03T02:55:45.952Z,19.33
2022-08-03T02:58:15.225Z,19.32
2022-08-03T03:00:45.556Z,19.46
2022-08-03T03:03:15.671Z,19.43
2022-08-03T03:05:54.712Z,19.35
2022-08-03T03:08:28.410Z,19.26
2022-08-03T03:10:58.196Z,19.30
2022-08-03T03:13:26.690Z,19.31
2022-08-03T03:15:55.947Z,18.97
2022-08-03T03:18:25.781Z,18.50
2022-08-03T03:20:54.589Z,18.23
2022-08-03T03:23:23.193Z,18.12
2022-08-03T03:25:51.581Z,18.20
2022-08-03T03:28:19.683Z,18.34
2022-08-03T03:30:52.706Z,18.43
2022-08-03T03:33:21.706Z,18.51
2022-08-03T03:35:51.814Z,18.53
2022-08-03T03:38:20.328Z,18.75
2022-08-03T03:40:48.318Z,18.82
2022-08-03T03:43:18.570Z,18.79
2022-08-03T03:45:47.012Z,18.77
2022-08-03T03:48:15.097Z,18.78
2022-08-03T03:50:43.413Z,18.75
2022-08-03T03:53:13.730Z,18.87
2022-08-03T03:55:58.925Z,18.81
2022-08-03T03:58:31.328Z,18.82
2022-08-03T04:00:59.417Z,18.83
2022-08-03T04:03:27.486Z,18.95
2022-08-03T04:06:12.751Z,18.99
2022-08-03T04:09:14.101Z,18.99
2022-08-03T04:11:44.089Z,19.09
2022-08-03T04:14:14.183Z,19.10
2022-08-03T04:16:44.298Z,19.14
2022-08-03T04:19:19.671Z,19.25
2022-08-03T04:21:52.972Z,19.40
2022-08-03T04:24:27.323Z,19.40
2022-08-03T04:26:56.201Z,19.26
2022-08-03T04:29:25.343Z,19.09
2022-08-03T04:31:55.699Z,19.14
2022-08-03T04:34:23.813Z,19.19
2022-08-03T04:36:54.972Z,19.22
2022-08-03T04:39:28.039Z,19.17
2022-08-03T04:42:08.407Z,19.16
2022-08-03T04:44:39.158Z,19.32
2022-08-03T04:47:07.501Z,19.27
2022-08-03T04:49:37.882Z,19.47
2022-08-03T04:52:06.847Z,19.44
2022-08-03T04:54:42.555Z,19.24
2022-08-03T04:57:21.971Z,19.33
2022-08-03T04:59:54.762Z,19.30
2022-08-03T05:02:26.323Z,19.41
2022-08-03T05:04:54.316Z,19.41
2022-08-03T05:07:25.152Z,19.50
2022-08-03T05:10:01.365Z,19.61
2022-08-03T05:12:33.078Z,19.67
2022-08-03T05:15:01.511Z,19.76
2022-08-03T05:17:29.929Z,19.82
2022-08-03T05:19:58.059Z,19.75
2022-08-03T05:22:25.996Z,19.96
2022-08-03T05:24:55.456Z,20.01
2022-08-03T05:27:23.398Z,20.11
2022-08-03T05:29:52.042Z,20.15
2022-08-03T05:32:20.439Z,20.13
2022-08-03T05:34:48.523Z,20.25
2022-08-03T05:37:16.491Z,20.33
2022-08-03T05:39:44.449Z,20.40
2022-08-03T05:42:16.940Z,20.50
2022-08-03T05:44:45.113Z,20.63
2022-08-03T05:47:13.248Z,20.68
2022-08-03T05:49:41.326Z,20.80
2022-08-03T05:52:18.057Z,20.92
2022-08-03T05:54:55.590Z,20.99
2022-08-03T05:57:27.230Z,21.13
2022-08-03T05:59:58.319Z,21.28
2022-08-03T06:02:27.126Z,21.39
2022-08-03T06:04:55.178Z,21.41
2022-08-03T06:07:23.203Z,21.59
2022-08-03T06:10:36.725Z,21.74
2022-08-03T06:12:41.575Z,21.75
2022-08-03T06:15:11.677Z,21.83
2022-08-03T06:17:47.404Z,21.95
2022-08-03T06:20:17.771Z,22.06
2022-08-03T06:22:51.159Z,22.14
2022-08-03T06:25:28.230Z,22.29
2022-08-03T06:27:57.903Z,22.46
2022-08-03T06:30:28.460Z,22.58
2022-08-03T06:32:56.649Z,22.62
2022-08-03T06:35:24.823Z,22.81
2022-08-03T06:37:53.167Z,22.97
2022-08-03T06:40:28.563Z,23.07
2022-08-03T06:43:01.126Z,23.21
2022-08-03T06:45:31.762Z,23.30
2022-08-03T06:48:04.042Z,23.40
2022-08-03T06:50:32.264Z,23.61
2022-08-03T06:53:00.707Z,23.77
2022-08-03T06:55:29.151Z,23.75
2022-08-03T06:58:00.052Z,23.81
2022-08-03T07:00:34.498Z,23.70
2022-08-03T07:03:02.570Z,23.86
2022-08-03T07:05:33.511Z,24.02
2022-08-03T07:08:03.783Z,23.98
2022-08-03T07:10:31.775Z,24.13
2022-08-03T07:13:01.267Z,24.48
2022-08-03T07:15:54.265Z,24.52
2022-08-03T07:18:29.134Z,24.65
2022-08-03T07:20:58.194Z,24.60
2022-08-03T07:23:26.568Z,24.57
2022-08-03T07:25:55.094Z,24.80
2022-08-03T07:28:24.486Z,24.90
2022-08-03T07:30:52.663Z,25.03
2022-08-03T07:33:23.787Z,25.14
2022-08-03T07:35:51.879Z,25.28
2022-08-03T07:38:21.237Z,25.46
2022-08-03T07:40:49.715Z,25.28
2022-08-03T07:43:17.835Z,25.44
2022-08-03T07:45:51.429Z,25.28
2022-08-03T07:48:19.897Z,25.34
2022-08-03T07:50:55.793Z,25.47
2022-08-03T07:53:25.426Z,25.56
2022-08-03T07:56:02.998Z,25.59
2022-08-03T07:58:39.119Z,25.65
2022-08-03T08:01:09.055Z,25.69
2022-08-03T08:03:52.338Z,25.86
2022-08-03T08:06:23.698Z,25.73
2022-08-03T08:09:02.435Z,25.94
2022-08-03T08:11:30.699Z,26.10
2022-08-03T08:13:58.753Z,26.16
2022-08-03T08:16:32.502Z,26.04
2022-08-03T08:19:08.194Z,26.15
2022-08-03T08:21:53.533Z,26.09
2022-08-03T08:24:30.442Z,26.27
2022-08-03T08:27:00.167Z,26.51
2022-08-03T08:29:28.542Z,26.60
2022-08-03T08:31:58.128Z,26.53
2022-08-03T08:34:29.395Z,26.65
2022-08-03T08:37:00.504Z,26.91
2022-08-03T08:39:35.563Z,27.00
2022-08-03T08:42:05.281Z,26.73
2022-08-03T08:44:36.351Z,26.88
2022-08-03T08:47:05.927Z,27.41
2022-08-03T08:49:39.176Z,27.55
2022-08-03T08:52:25.126Z,27.35
2022-08-03T08:55:04.556Z,27.13
2022-08-03T08:57:48.184Z,27.02
2022-08-03T09:00:23.444Z,26.74
2022-08-03T09:02:53.210Z,27.01
2022-08-03T09:05:35.748Z,27.66
2022-08-03T09:08:22.207Z,27.78
2022-08-03T09:10:56.784Z,27.90
2022-08-03T09:13:25.194Z,28.06
2022-08-03T09:16:14.630Z,27.97
2022-08-03T09:18:45.658Z,27.91
2022-08-03T09:21:33.254Z,28.07
2022-08-03T09:24:20.669Z,28.30
2022-08-03T09:26:59.834Z,28.62
2022-08-03T09:29:30.231Z,28.36
2022-08-03T09:32:05.442Z,28.61
2022-08-03T09:34:41.841Z,28.81
2022-08-03T09:37:24.000Z,28.65
2022-08-03T09:40:31.585Z,28.98
2022-08-03T09:43:02.191Z,28.92
2022-08-03T09:45:41.928Z,29.11
2022-08-03T09:48:38.764Z,29.03
2022-08-03T09:51:13.397Z,28.77
2022-08-03T09:54:17.537Z,28.72
2022-08-03T09:56:50.254Z,29.57
2022-08-03T09:59:26.088Z,29.61
2022-08-03T10:01:58.876Z,29.70
2022-08-03T10:04:30.032Z,29.17
2022-08-03T10:07:08.014Z,29.42
2022-08-03T10:09:38.372Z,29.62
2022-08-03T10:12:14.240Z,29.39
2022-08-03T10:14:58.034Z,29.28
2022-08-03T10:17:29.661Z,29.37
2022-08-03T10:20:04.179Z,29.27
2022-08-03T10:22:43.724Z,29.67
2022-08-03T10:25:14.043Z,30.05
2022-08-03T10:27:55.797Z,30.05
2022-08-03T10:30:26.275Z,30.01
2022-08-03T10:32:58.292Z,30.19
2022-08-03T10:35:28.409Z,30.47
2022-08-03T10:38:18.682Z,30.18
2022-08-03T10:40:49.969Z,30.62
2022-08-03T10:43:47.181Z,30.54
2022-08-03T10:46:22.257Z,30.21
2022-08-03T10:48:52.570Z,30.34
2022-08-03T10:51:33.422Z,30.29
2022-08-03T10:54:02.938Z,30.57
2022-08-03T10:57:12.390Z,30.81
2022-08-03T11:00:03.917Z,30.76
2022-08-03T11:03:10.316Z,30.92
2022-08-03T11:05:48.375Z,30.73
2022-08-03T11:08:30.824Z,31.14
2022-08-03T11:11:28.794Z,31.19
2022-08-03T11:14:18.416Z,31.46
2022-08-03T11:16:49.952Z,30.58
2022-08-03T11:19:27.577Z,30.83
2022-08-03T11:22:11.265Z,31.06
2022-08-03T11:25:53.401Z,31.07
2022-08-03T11:28:28.926Z,30.58
2022-08-03T11:31:01.780Z,31.61
2022-08-03T11:33:39.603Z,31.63
2022-08-03T11:36:44.381Z,31.30
2022-08-03T11:40:02.835Z,31.85
2022-08-03T11:43:02.194Z,31.30
2022-08-03T11:46:03.837Z,31.71
2022-08-03T11:49:25.521Z,32.04
2022-08-03T11:51:57.511Z,32.31
2022-08-03T11:59:18.753Z,32.67
2022-08-03T12:00:44.774Z,32.00
2022-08-03T12:03:28.953Z,32.30
2022-08-03T12:05:58.400Z,32.09
2022-08-03T12:08:50.552Z,32.65
2022-08-03T12:12:00.425Z,33.16
2022-08-03T12:14:48.538Z,33.08
2022-08-03T12:17:23.294Z,32.34
2022-08-03T12:19:59.344Z,32.05
2022-08-03T12:23:37.993Z,32.66
2022-08-03T12:25:54.926Z,32.33
2022-08-03T12:28:36.819Z,32.12
2022-08-03T12:31:13.979Z,32.86
2022-08-03T12:34:00.757Z,32.77
2022-08-03T12:36:33.103Z,33.36
2022-08-03T12:39:08.477Z,33.02
2022-08-03T12:41:38.316Z,33.75
2022-08-03T12:44:10.500Z,32.78
2022-08-03T12:46:47.743Z,33.67
2022-08-03T12:49:23.770Z,33.07
2022-08-03T12:52:07.467Z,33.33
2022-08-03T12:54:43.452Z,33.10
2022-08-03T12:57:16.354Z,32.32
2022-08-03T12:59:53.532Z,33.26
2022-08-03T13:02:33.092Z,33.28
2022-08-03T13:05:38.802Z,33.45
2022-08-03T13:08:25.730Z,34.22
2022-08-03T13:10:58.280Z,33.88
2022-08-03T13:13:39.971Z,33.14
2022-08-03T13:16:08.156Z,33.71
2022-08-03T13:18:58.515Z,33.87
2022-08-03T13:22:03.275Z,33.72
2022-08-03T13:24:52.509Z,33.63
2022-08-03T13:28:04.120Z,32.48
2022-08-03T13:30:11.890Z,33.75
2022-08-03T13:32:40.073Z,34.13
2022-08-03T13:35:09.239Z,33.95
2022-08-03T13:37:40.392Z,33.66
2022-08-03T13:40:11.817Z,33.45
2022-08-03T13:42:56.913Z,33.98
2022-08-03T13:45:27.641Z,33.99
2022-08-03T13:48:08.019Z,34.29
2022-08-03T13:51:02.495Z,35.01
2022-08-03T13:53:35.549Z,33.92
2022-08-03T13:56:13.910Z,33.51
2022-08-03T13:58:46.685Z,33.75
2022-08-03T14:01:22.727Z,34.62
2022-08-03T14:04:06.209Z,34.94
2022-08-03T14:07:21.731Z,34.41
2022-08-03T14:09:57.397Z,35.12
2022-08-03T14:12:51.077Z,35.17
2022-08-03T14:15:19.629Z,34.72
2022-08-03T14:17:49.898Z,35.86
2022-08-03T14:20:36.712Z,34.77
2022-08-03T14:23:09.885Z,34.17
2022-08-03T14:25:44.475Z,34.25
2022-08-03T14:28:37.807Z,35.60
2022-08-03T14:32:11.550Z,35.30
2022-08-03T14:34:13.135Z,35.55
2022-08-03T14:36:52.064Z,35.00
2022-08-03T14:39:24.470Z,35.32
2022-08-03T14:41:59.766Z,35.83
2022-08-03T14:44:34.425Z,35.14
2022-08-03T14:47:05.297Z,35.59
2022-08-03T14:50:37.186Z,36.77
2022-08-03T14:52:23.783Z,37.01
2022-08-03T14:54:51.843Z,36.88
2022-08-03T14:57:21.625Z,35.21
2022-08-03T14:59:56.208Z,35.25
2022-08-03T15:02:25.901Z,34.87
2022-08-03T15:04:54.127Z,34.29
2022-08-03T15:07:30.657Z,33.85
2022-08-03T15:09:59.699Z,34.26
2022-08-03T15:12:43.433Z,35.36
2022-08-03T15:15:15.882Z,35.89
2022-08-03T15:18:00.133Z,35.42
2022-08-03T15:20:42.985Z,33.08
2022-08-03T15:23:17.928Z,33.67
2022-08-03T15:26:03.894Z,34.48
2022-08-03T15:28:37.279Z,34.58
2022-08-03T15:31:10.586Z,35.58
2022-08-03T15:33:42.783Z,35.07
2022-08-03T15:36:10.979Z,35.55
2022-08-03T15:38:39.024Z,35.26
2022-08-03T15:41:08.753Z,36.46
2022-08-03T15:43:41.908Z,35.16
2022-08-03T15:46:29.241Z,35.50
2022-08-03T15:48:57.734Z,36.79
2022-08-03T15:51:25.780Z,35.12
2022-08-03T15:53:53.793Z,35.69
2022-08-03T15:56:21.840Z,35.07
2022-08-03T15:59:11.422Z,34.28
2022-08-03T16:01:42.830Z,33.28
2022-08-03T16:04:10.924Z,34.01
2022-08-03T16:06:42.150Z,33.94
2022-08-03T16:09:23.574Z,34.76
2022-08-03T16:12:00.652Z,33.41
2022-08-03T16:14:34.415Z,33.06
2022-08-03T16:17:11.035Z,33.67
2022-08-03T16:19:39.086Z,33.52
2022-08-03T16:22:08.219Z,34.24
2022-08-03T16:24:37.854Z,33.52
2022-08-03T16:27:17.223Z,33.12
2022-08-03T16:29:55.523Z,33.23
2022-08-03T16:32:25.026Z,34.50
2022-08-03T16:34:53.041Z,34.74
2022-08-03T16:37:39.821Z,34.64
2022-08-03T16:40:19.212Z,34.48
2022-08-03T16:42:48.019Z,34.58
2022-08-03T16:45:16.228Z,35.09
2022-08-03T16:48:01.737Z,35.65
2022-08-03T16:50:35.974Z,35.15
2022-08-03T16:53:09.992Z,34.94
2022-08-03T16:55:51.831Z,34.39
2022-08-03T16:58:34.790Z,34.61
2022-08-03T17:01:22.413Z,35.05
2022-08-03T17:04:01.971Z,35.77
2022-08-03T17:06:33.834Z,35.30
2022-08-03T17:09:03.219Z,35.70
2022-08-03T17:11:32.134Z,34.79
2022-08-03T17:14:01.329Z,35.15
2022-08-03T17:16:31.628Z,35.00
2022-08-03T17:19:05.358Z,34.66
2022-08-03T17:21:39.130Z,34.44
2022-08-03T17:24:12.465Z,34.90
2022-08-03T17:26:44.740Z,35.49
2022-08-03T17:29:14.984Z,35.84
2022-08-03T17:31:49.128Z,35.22
2022-08-03T17:34:19.988Z,34.83
2022-08-03T17:37:05.773Z,34.94
2022-08-03T17:39:58.825Z,34.86
2022-08-03T17:42:29.444Z,34.13
2022-08-03T17:45:01.690Z,33.63
2022-08-03T17:47:42.881Z,33.17
2022-08-03T17:50:24.518Z,32.65
2022-08-03T17:52:58.686Z,32.95
2022-08-03T17:55:58.553Z,32.63
2022-08-03T17:58:23.660Z,32.79
2022-08-03T18:02:00.219Z,32.64
2022-08-03T18:04:11.032Z,32.25
2022-08-03T18:06:55.865Z,32.42
2022-08-03T18:10:06.793Z,32.98
2022-08-03T18:12:18.023Z,32.67
2022-08-03T18:14:57.554Z,32.06
2022-08-03T18:17:55.583Z,31.64
2022-08-03T18:20:33.189Z,31.54
2022-08-03T18:23:08.360Z,31.49
2022-08-03T18:25:45.632Z,30.96
2022-08-03T18:28:18.491Z,31.28
2022-08-03T18:34:17.949Z,31.08
2022-08-03T18:36:30.548Z,30.46
2022-08-03T18:39:00.591Z,30.62
2022-08-03T18:41:32.943Z,29.11
2022-08-03T18:44:07.298Z,29.73
2022-08-03T18:46:49.011Z,30.27
2022-08-03T18:49:24.784Z,30.70
2022-08-03T18:52:03.516Z,30.84
2022-08-03T18:54:45.676Z,29.93
2022-08-03T18:57:35.289Z,30.72
2022-08-03T19:00:12.236Z,30.47
2022-08-03T19:02:48.868Z,30.08
2022-08-03T19:05:19.624Z,29.69
2022-08-03T19:07:57.979Z,27.76
2022-08-03T19:10:32.462Z,27.62
2022-08-03T19:13:11.306Z,27.23
2022-08-03T19:15:51.039Z,27.79
2022-08-03T19:18:22.060Z,27.70
2022-08-03T19:20:53.206Z,27.24
2022-08-03T19:23:24.763Z,27.71
2022-08-03T19:25:54.623Z,28.03
2022-08-03T19:28:29.796Z,27.53
2022-08-03T19:30:58.513Z,27.87
2022-08-03T19:33:29.919Z,26.83
2022-08-03T19:35:58.620Z,27.47
2022-08-03T19:38:29.854Z,26.88
2022-08-03T19:41:02.476Z,26.69
2022-08-03T19:43:52.809Z,26.28
2022-08-03T19:46:27.620Z,26.76
2022-08-03T19:49:02.064Z,26.87
2022-08-03T19:52:01.406Z,27.19
2022-08-03T19:54:29.896Z,26.92
2022-08-03T19:57:02.315Z,27.32
2022-08-03T19:59:30.946Z,27.64
2022-08-03T20:01:58.967Z,27.50
2022-08-03T20:04:26.970Z,26.95
2022-08-03T20:06:57.274Z,27.29
2022-08-03T20:09:25.574Z,27.03
2022-08-03T20:11:59.023Z,27.17
2022-08-03T20:14:28.731Z,26.88
2022-08-03T20:16:57.311Z,26.73
2022-08-03T20:19:25.361Z,26.55
2022-08-03T20:22:00.983Z,26.94
2022-08-03T20:24:31.772Z,26.73
2022-08-03T20:27:01.419Z,26.60
2022-08-03T20:30:05.387Z,26.51
2022-08-03T20:32:24.764Z,25.70
2022-08-03T20:34:53.354Z,25.67
2022-08-03T20:37:21.468Z,25.26
2022-08-03T20:39:49.939Z,25.40
2022-08-03T20:42:21.801Z,25.73
2022-08-03T20:45:06.026Z,26.08
2022-08-03T20:47:50.671Z,26.33
2022-08-03T20:50:22.162Z,26.27
2022-08-03T20:52:50.972Z,25.91
2022-08-03T20:55:20.303Z,26.04
2022-08-03T20:58:08.163Z,26.03
2022-08-03T21:00:37.791Z,26.34
2022-08-03T21:03:06.811Z,25.91
2022-08-03T21:08:28.138Z,25.40
2022-08-03T21:10:59.114Z,25.45
2022-08-03T21:12:58.148Z,30.86
2022-08-03T21:13:08.028Z,25.54
2022-08-03T21:13:33.221Z,26.04
2022-08-03T21:16:14.262Z,26.00
2022-08-03T21:18:47.001Z,25.65
2022-08-03T21:21:19.006Z,26.12
2022-08-03T21:23:53.667Z,25.78
2022-08-03T21:26:24.493Z,24.80
2022-08-03T21:28:54.228Z,24.32
2022-08-03T21:31:26.523Z,24.54
2022-08-03T21:33:57.908Z,23.82
2022-08-03T21:36:27.951Z,24.51
2022-08-03T21:38:57.499Z,24.39
2022-08-03T21:41:26.571Z,23.94
2022-08-03T21:44:03.041Z,23.79
2022-08-03T21:46:38.681Z,23.91
2022-08-03T21:50:04.749Z,24.39
2022-08-03T21:52:00.773Z,24.48
2022-08-03T21:54:34.397Z,24.88
2022-08-03T21:57:05.580Z,25.13
2022-08-03T21:59:37.691Z,24.92
2022-08-03T22:02:20.839Z,24.71
2022-08-03T22:04:57.205Z,24.70
2022-08-03T22:07:26.374Z,24.89
2022-08-03T22:09:55.321Z,24.90
2022-08-03T22:12:32.362Z,25.11
2022-08-03T22:15:02.401Z,25.13
2022-08-03T22:17:55.541Z,25.18
2022-08-03T22:20:22.542Z,24.76
2022-08-03T22:22:55.153Z,24.67
2022-08-03T22:25:29.035Z,24.58
2022-08-03T22:27:59.080Z,24.56
2022-08-03T22:30:27.403Z,24.73
2022-08-03T22:32:57.717Z,24.80
2022-08-03T22:35:27.293Z,24.76
2022-08-03T22:37:56.142Z,24.80
2022-08-03T22:40:24.243Z,24.68
2022-08-03T22:42:53.478Z,24.83
2022-08-03T22:46:07.771Z,24.69
2022-08-03T22:48:12.527Z,24.77
2022-08-03T22:50:40.777Z,24.68
2022-08-03T22:53:09.035Z,24.25
2022-08-03T22:55:37.875Z,24.03
2022-08-03T22:58:05.972Z,23.99
2022-08-03T23:00:34.284Z,23.85
2022-08-03T23:03:03.697Z,24.17
2022-08-03T23:06:01.866Z,24.33
2022-08-03T23:08:27.447Z,23.65
2022-08-03T23:10:57.946Z,23.27
2022-08-03T23:13:34.353Z,23.66
2022-08-03T23:16:02.851Z,23.64
2022-08-03T23:18:43.463Z,23.75
2022-08-03T23:21:15.240Z,23.74
2022-08-03T23:23:44.163Z,23.53
2022-08-03T23:26:14.292Z,23.82
2022-08-03T23:28:43.411Z,23.81
2022-08-03T23:31:11.801Z,24.00
2022-08-03T23:33:40.655Z,24.11
2022-08-03T23:36:30.397Z,24.16
2022-08-03T23:39:00.300Z,23.86
2022-08-03T23:41:28.729Z,24.15
2022-08-03T23:43:57.501Z,24.17
2022-08-03T23:46:27.474Z,24.18
2022-08-03T23:48:56.654Z,24.22
2022-08-03T23:51:44.879Z,24.10
2022-08-03T23:54:30.321Z,23.83
2022-08-03T23:57:04.783Z,23.70
2022-08-03T23:59:39.710Z,23.80
